createdAt,value
2018-09-21T00:02:24.516Z,17.60
2018-09-21T00:04:53.526Z,17.60
2018-09-21T00:07:22.610Z,17.60
2018-09-21T00:09:52.164Z,17.50
2018-09-21T00:12:21.079Z,17.50
2018-09-21T00:14:49.968Z,17.40
2018-09-21T00:17:18.919Z,17.40
2018-09-21T00:19:47.861Z,17.40
2018-09-21T00:22:16.731Z,17.40
2018-09-21T00:24:45.742Z,17.40
2018-09-21T00:27:14.668Z,17.30
2018-09-21T00:29:43.853Z,17.30
2018-09-21T00:32:12.749Z,17.30
2018-09-21T00:34:41.667Z,17.30
2018-09-21T00:37:10.667Z,17.30
2018-09-21T00:39:39.797Z,17.30
2018-09-21T00:42:08.729Z,17.30
2018-09-21T00:44:37.665Z,17.30
2018-09-21T00:47:06.883Z,17.20
2018-09-21T00:49:35.848Z,17.20
2018-09-21T00:52:04.816Z,17.20
2018-09-21T00:54:33.779Z,17.10
2018-09-21T00:57:02.669Z,17.10
2018-09-21T00:59:31.827Z,17.10
2018-09-21T01:02:00.691Z,17.10
2018-09-21T01:04:33.749Z,17.00
2018-09-21T01:07:02.632Z,17.00
2018-09-21T01:09:31.513Z,17.00
2018-09-21T01:12:00.569Z,17.00
2018-09-21T01:14:29.566Z,17.00
2018-09-21T01:16:59.269Z,17.00
2018-09-21T01:19:28.650Z,17.00
2018-09-21T01:21:57.608Z,16.90
2018-09-21T01:24:27.476Z,16.90
2018-09-21T01:26:57.163Z,16.90
2018-09-21T01:29:26.104Z,16.90
2018-09-21T01:31:55.084Z,16.90
2018-09-21T01:34:23.933Z,16.90
2018-09-21T01:36:52.825Z,16.90
2018-09-21T01:39:21.690Z,16.80
2018-09-21T01:41:50.547Z,16.80
2018-09-21T01:44:19.534Z,16.70
2018-09-21T01:46:48.308Z,16.70
2018-09-21T01:49:17.281Z,16.70
2018-09-21T01:51:46.212Z,16.70
2018-09-21T01:54:15.066Z,16.70
2018-09-21T01:56:43.888Z,16.70
2018-09-21T01:59:19.853Z,16.60
2018-09-21T02:01:48.755Z,16.70
2018-09-21T02:04:17.711Z,16.70
2018-09-21T02:06:46.513Z,16.70
2018-09-21T02:09:15.948Z,16.70
2018-09-21T02:11:45.323Z,16.70
2018-09-21T02:14:14.227Z,16.70
2018-09-21T02:16:43.122Z,16.80
2018-09-21T02:19:11.935Z,16.80
2018-09-21T02:21:40.757Z,16.80
2018-09-21T02:24:09.581Z,16.80
2018-09-21T02:26:38.435Z,16.90
2018-09-21T02:29:07.304Z,16.90
2018-09-21T02:31:36.206Z,17.00
2018-09-21T02:34:05.086Z,17.00
2018-09-21T02:36:34.108Z,17.00
2018-09-21T02:39:03.380Z,17.10
2018-09-21T02:41:33.665Z,17.10
2018-09-21T02:44:02.593Z,17.30
2018-09-21T02:46:31.615Z,17.40
2018-09-21T02:49:00.455Z,17.50
2018-09-21T02:51:29.262Z,17.80
2018-09-21T02:53:58.059Z,18.00
2018-09-21T02:56:27.054Z,18.10
2018-09-21T02:58:55.912Z,18.30
2018-09-21T03:01:24.730Z,18.50
2018-09-21T03:03:53.621Z,18.70
2018-09-21T03:06:22.613Z,18.70
2018-09-21T03:08:51.506Z,18.70
2018-09-21T03:11:20.356Z,18.70
2018-09-21T03:13:49.272Z,18.80
2018-09-21T03:16:18.322Z,18.80
2018-09-21T03:18:47.406Z,19.00
2018-09-21T03:21:16.488Z,19.00
2018-09-21T03:23:45.553Z,19.00
2018-09-21T03:26:14.432Z,19.00
2018-09-21T03:28:43.381Z,19.00
2018-09-21T03:31:12.264Z,19.00
2018-09-21T03:33:41.165Z,19.00
2018-09-21T03:36:10.104Z,19.10
2018-09-21T03:38:39.036Z,19.00
2018-09-21T03:41:07.969Z,19.00
2018-09-21T03:43:37.046Z,19.00
2018-09-21T03:46:06.184Z,19.00
2018-09-21T03:48:35.276Z,18.90
2018-09-21T03:51:04.068Z,18.90
2018-09-21T03:53:32.908Z,19.00
2018-09-21T03:56:01.826Z,19.00
2018-09-21T03:58:30.840Z,18.90
2018-09-21T04:01:00.760Z,18.90
2018-09-21T04:03:29.605Z,18.90
2018-09-21T04:05:58.409Z,18.80
2018-09-21T04:08:27.328Z,18.70
2018-09-21T04:10:56.258Z,18.60
2018-09-21T04:13:25.086Z,18.50
2018-09-21T04:15:53.884Z,18.40
2018-09-21T04:18:22.680Z,18.20
2018-09-21T04:20:51.592Z,18.10
2018-09-21T04:23:20.970Z,18.10
2018-09-21T04:25:49.767Z,18.00
2018-09-21T04:28:18.702Z,17.90
2018-09-21T04:30:47.813Z,17.70
2018-09-21T04:33:16.822Z,17.60
2018-09-21T04:35:45.716Z,17.60
2018-09-21T04:38:15.212Z,17.50
2018-09-21T04:40:44.148Z,17.40
2018-09-21T04:43:13.246Z,17.40
2018-09-21T04:45:42.223Z,17.30
2018-09-21T04:48:11.132Z,17.20
2018-09-21T04:50:40.201Z,17.20
2018-09-21T04:53:09.193Z,17.20
2018-09-21T04:55:38.129Z,17.10
2018-09-21T04:58:07.121Z,17.10
2018-09-21T05:00:35.988Z,17.10
2018-09-21T05:03:04.892Z,17.00
2018-09-21T05:05:33.753Z,17.00
2018-09-21T05:08:02.645Z,17.00
2018-09-21T05:10:31.664Z,17.00
2018-09-21T05:13:00.872Z,17.00
2018-09-21T05:15:29.707Z,17.00
2018-09-21T05:17:58.531Z,17.10
2018-09-21T05:20:27.352Z,17.10
2018-09-21T05:22:56.322Z,17.10
2018-09-21T05:25:25.136Z,17.10
2018-09-21T05:27:54.073Z,17.10
2018-09-21T05:30:23.916Z,17.10
2018-09-21T05:32:54.787Z,17.20
2018-09-21T05:35:23.598Z,17.20
2018-09-21T05:37:52.477Z,17.20
2018-09-21T05:40:21.385Z,17.30
2018-09-21T05:42:50.309Z,17.30
2018-09-21T05:45:19.162Z,17.30
2018-09-21T05:47:48.061Z,17.50
2018-09-21T05:50:16.954Z,17.70
2018-09-21T05:52:46.016Z,17.60
2018-09-21T05:55:14.928Z,17.80
2018-09-21T05:57:44.117Z,17.90
2018-09-21T06:00:15.068Z,18.00
2018-09-21T06:02:44.569Z,18.20
2018-09-21T06:05:13.419Z,18.40
2018-09-21T06:07:42.260Z,18.60
2018-09-21T06:10:11.037Z,18.70
2018-09-21T06:12:39.873Z,18.70
2018-09-21T06:15:09.873Z,18.70
2018-09-21T06:17:38.772Z,18.80
2018-09-21T06:20:12.610Z,18.80
2018-09-21T06:22:44.980Z,18.80
2018-09-21T06:25:06.061Z,19.00
2018-09-21T06:27:34.913Z,19.00
2018-09-21T06:30:03.830Z,19.10
2018-09-21T06:32:32.748Z,19.20
2018-09-21T06:35:01.639Z,19.30
2018-09-21T06:37:30.509Z,19.40
2018-09-21T06:39:59.837Z,19.50
2018-09-21T06:42:28.770Z,19.70
2018-09-21T06:44:57.648Z,19.80
2018-09-21T06:47:26.523Z,19.80
2018-09-21T06:49:55.636Z,20.00
2018-09-21T06:52:24.589Z,20.10
2018-09-21T06:54:53.443Z,20.20
2018-09-21T06:57:22.313Z,20.20
2018-09-21T06:59:51.197Z,20.40
2018-09-21T07:02:20.101Z,20.50
2018-09-21T07:04:49.153Z,20.70
2018-09-21T07:07:19.056Z,20.80
2018-09-21T07:09:47.975Z,20.90
2018-09-21T07:12:16.925Z,21.10
2018-09-21T07:14:45.908Z,21.30
2018-09-21T07:17:14.921Z,21.40
2018-09-21T07:19:43.768Z,21.60
2018-09-21T07:22:12.760Z,21.70
2018-09-21T07:24:41.636Z,21.80
2018-09-21T07:27:10.614Z,22.00
2018-09-21T07:29:39.461Z,22.10
2018-09-21T07:32:08.377Z,22.10
2018-09-21T07:34:37.304Z,22.30
2018-09-21T07:37:06.104Z,22.30
2018-09-21T07:39:34.992Z,22.40
2018-09-21T07:42:03.885Z,22.60
2018-09-21T07:44:32.853Z,22.60
2018-09-21T07:47:01.839Z,22.70
2018-09-21T07:49:30.765Z,22.80
2018-09-21T07:51:59.607Z,22.90
2018-09-21T07:54:28.554Z,23.00
2018-09-21T07:56:57.353Z,23.20
2018-09-21T07:59:27.085Z,23.30
2018-09-21T08:01:55.956Z,23.40
2018-09-21T08:04:24.953Z,23.60
2018-09-21T08:06:53.785Z,23.70
2018-09-21T08:09:22.615Z,23.80
2018-09-21T08:11:51.800Z,23.90
2018-09-21T08:14:20.768Z,24.00
2018-09-21T08:16:49.681Z,24.00
2018-09-21T08:19:18.906Z,24.10
2018-09-21T08:21:47.891Z,24.20
2018-09-21T08:24:16.732Z,24.20
2018-09-21T08:26:45.710Z,24.20
2018-09-21T08:29:14.731Z,24.40
2018-09-21T08:31:44.481Z,24.40
2018-09-21T08:34:14.552Z,24.40
2018-09-21T08:36:43.520Z,24.40
2018-09-21T08:39:12.802Z,24.30
2018-09-21T08:41:41.972Z,24.20
2018-09-21T08:44:11.099Z,24.20
2018-09-21T08:46:40.332Z,24.20
2018-09-21T08:49:09.289Z,24.30
2018-09-21T08:51:38.236Z,24.40
2018-09-21T08:54:07.238Z,24.40
2018-09-21T08:56:36.463Z,24.60
2018-09-21T08:59:05.381Z,24.70
2018-09-21T09:01:36.669Z,24.70
2018-09-21T09:04:05.645Z,24.70
2018-09-21T09:06:34.596Z,24.90
2018-09-21T09:09:05.351Z,25.00
2018-09-21T09:11:34.168Z,25.10
2018-09-21T09:14:03.187Z,25.20
2018-09-21T09:16:32.253Z,25.20
2018-09-21T09:19:01.241Z,25.30
2018-09-21T09:21:34.072Z,25.40
2018-09-21T09:24:02.917Z,25.90
2018-09-21T09:26:32.421Z,26.30
2018-09-21T09:29:01.439Z,27.00
2018-09-21T09:31:30.364Z,27.50
2018-09-21T09:33:59.369Z,27.70
2018-09-21T09:36:29.616Z,27.50
2018-09-21T09:38:59.734Z,27.80
2018-09-21T09:41:28.653Z,28.00
2018-09-21T09:43:57.744Z,28.10
2018-09-21T09:46:26.864Z,28.10
2018-09-21T09:48:55.863Z,27.90
2018-09-21T09:51:24.572Z,27.50
2018-09-21T09:53:53.497Z,27.10
2018-09-21T09:56:23.520Z,27.00
2018-09-21T09:58:52.414Z,26.90
2018-09-21T10:01:21.246Z,27.00
2018-09-21T10:03:50.176Z,27.00
2018-09-21T10:06:19.135Z,27.10
2018-09-21T10:08:48.346Z,27.30
2018-09-21T10:11:17.377Z,27.30
2018-09-21T10:13:46.563Z,27.20
2018-09-21T10:16:15.432Z,27.10
2018-09-21T10:18:44.476Z,27.10
2018-09-21T10:21:13.416Z,27.00
2018-09-21T10:23:45.018Z,27.00
2018-09-21T10:26:14.435Z,27.10
2018-09-21T10:28:44.105Z,27.00
2018-09-21T10:31:12.892Z,27.00
2018-09-21T10:33:41.913Z,26.90
2018-09-21T10:36:10.893Z,26.80
2018-09-21T10:38:39.805Z,26.80
2018-09-21T10:41:08.608Z,26.70
2018-09-21T10:43:37.654Z,26.50
2018-09-21T10:46:06.695Z,26.50
2018-09-21T10:48:37.745Z,26.50
2018-09-21T10:51:06.773Z,26.50
2018-09-21T10:53:36.055Z,26.40
2018-09-21T10:56:05.153Z,26.40
2018-09-21T10:58:34.036Z,26.40
2018-09-21T11:01:03.666Z,26.40
2018-09-21T11:03:32.491Z,26.40
2018-09-21T11:06:01.510Z,26.40
2018-09-21T11:08:30.477Z,26.40
2018-09-21T11:10:59.314Z,26.40
2018-09-21T11:13:28.176Z,26.50
2018-09-21T11:15:57.249Z,26.50
2018-09-21T11:18:28.013Z,26.40
2018-09-21T11:20:56.883Z,26.50
2018-09-21T11:23:25.772Z,26.50
2018-09-21T11:25:54.904Z,26.40
2018-09-21T11:28:24.054Z,26.40
2018-09-21T11:30:52.932Z,26.30
2018-09-21T11:33:22.957Z,26.30
2018-09-21T11:35:52.200Z,26.30
2018-09-21T11:38:22.232Z,26.20
2018-09-21T11:40:51.182Z,26.10
2018-09-21T11:43:20.219Z,26.20
2018-09-21T11:45:49.103Z,26.30
2018-09-21T11:48:18.107Z,26.30
2018-09-21T11:50:46.956Z,26.30
2018-09-21T11:53:18.089Z,26.30
2018-09-21T11:55:47.023Z,26.40
2018-09-21T11:58:16.272Z,26.30
2018-09-21T12:00:45.293Z,26.30
2018-09-21T12:03:14.367Z,26.20
2018-09-21T12:05:43.311Z,26.20
2018-09-21T12:08:13.215Z,26.20
2018-09-21T12:10:43.184Z,26.30
2018-09-21T12:13:12.920Z,26.30
2018-09-21T12:15:41.770Z,26.40
2018-09-21T12:18:11.934Z,26.30
2018-09-21T12:21:04.470Z,26.30
2018-09-21T12:23:33.336Z,26.20
2018-09-21T12:26:02.297Z,26.00
2018-09-21T12:28:31.376Z,26.00
2018-09-21T12:31:00.224Z,25.90
2018-09-21T12:33:29.048Z,25.80
2018-09-21T12:35:57.876Z,25.70
2018-09-21T12:38:26.709Z,25.70
2018-09-21T12:40:55.516Z,25.60
2018-09-21T12:43:24.608Z,25.50
2018-09-21T12:45:53.460Z,25.50
2018-09-21T12:48:22.304Z,25.50
2018-09-21T12:50:51.701Z,25.50
2018-09-21T12:53:20.600Z,25.40
2018-09-21T12:55:49.395Z,25.30
2018-09-21T12:58:18.264Z,25.20
2018-09-21T13:00:50.618Z,25.10
2018-09-21T13:03:21.636Z,25.00
2018-09-21T13:06:00.461Z,24.90
2018-09-21T13:08:30.117Z,24.80
2018-09-21T13:11:00.240Z,24.70
2018-09-21T13:13:32.646Z,24.80
2018-09-21T13:16:03.293Z,24.80
2018-09-21T13:18:33.300Z,24.80
2018-09-21T13:21:03.907Z,24.80
2018-09-21T13:23:33.721Z,24.80
2018-09-21T13:26:04.339Z,24.80
2018-09-21T13:28:33.314Z,24.70
2018-09-21T13:31:03.513Z,24.60
2018-09-21T13:33:32.980Z,24.60
2018-09-21T13:36:02.624Z,24.50
2018-09-21T13:38:32.326Z,24.50
2018-09-21T13:41:02.410Z,24.50
2018-09-21T13:43:31.629Z,24.40
2018-09-21T13:46:04.733Z,24.40
2018-09-21T13:48:41.002Z,24.30
2018-09-21T13:51:11.470Z,24.30
2018-09-21T13:53:43.195Z,24.30
2018-09-21T13:56:21.254Z,24.30
2018-09-21T13:58:57.341Z,24.30
2018-09-21T14:01:33.756Z,24.30
2018-09-21T14:07:45.710Z,24.20
2018-09-21T14:10:15.357Z,24.30
2018-09-21T14:12:44.769Z,24.30
2018-09-21T14:15:15.630Z,24.40
2018-09-21T14:17:51.194Z,24.40
2018-09-21T14:23:04.713Z,24.40
2018-09-21T14:25:33.702Z,24.40
2018-09-21T14:28:02.797Z,24.40
2018-09-21T14:30:36.082Z,24.40
2018-09-21T14:33:18.623Z,24.40
2018-09-21T14:35:47.659Z,24.30
2018-09-21T14:38:16.611Z,24.40
2018-09-21T14:40:46.707Z,24.30
2018-09-21T14:43:20.564Z,24.30
2018-09-21T14:45:52.342Z,24.30
2018-09-21T14:48:21.872Z,24.30
2018-09-21T14:50:50.997Z,24.30
2018-09-21T14:53:19.976Z,24.30
2018-09-21T14:55:50.353Z,24.20
2018-09-21T14:58:21.882Z,24.30
2018-09-21T15:00:50.962Z,24.20
2018-09-21T15:06:14.731Z,24.20
2018-09-21T15:08:43.942Z,24.20
2018-09-21T15:11:20.502Z,24.20
2018-09-21T15:21:12.076Z,24.20
2018-09-21T15:23:41.254Z,24.00
2018-09-21T15:26:10.129Z,23.90
2018-09-21T15:28:39.116Z,23.90
2018-09-21T15:31:12.078Z,23.90
2018-09-21T15:33:41.372Z,23.90
2018-09-21T15:36:19.817Z,23.80
2018-09-21T15:38:52.007Z,23.80
2018-09-21T15:41:20.861Z,23.80
2018-09-21T15:43:49.745Z,23.80
2018-09-21T15:46:18.575Z,23.70
2018-09-21T15:48:48.361Z,23.60
2018-09-21T15:51:17.231Z,23.60
2018-09-21T15:53:46.320Z,23.60
2018-09-21T15:56:15.699Z,23.50
2018-09-21T15:58:44.885Z,23.40
2018-09-21T16:01:14.220Z,23.40
2018-09-21T16:03:43.450Z,23.40
2018-09-21T16:06:12.540Z,23.30
2018-09-21T16:08:42.648Z,23.30
2018-09-21T16:11:11.581Z,23.20
2018-09-21T16:13:43.222Z,23.20
2018-09-21T16:16:16.893Z,22.80
2018-09-21T16:18:45.716Z,21.80
2018-09-21T16:21:16.012Z,21.50
2018-09-21T16:23:44.914Z,21.30
2018-09-21T16:26:13.784Z,20.90
2018-09-21T16:28:42.917Z,20.30
2018-09-21T16:31:11.740Z,20.10
2018-09-21T16:33:40.566Z,19.80
2018-09-21T16:36:09.526Z,19.60
2018-09-21T16:38:38.456Z,19.40
2018-09-21T16:41:09.544Z,19.10
2018-09-21T16:43:38.554Z,18.90
2018-09-21T16:46:07.356Z,18.80
2018-09-21T16:48:36.807Z,18.70
2018-09-21T16:51:05.909Z,18.50
2018-09-21T16:53:34.704Z,18.10
2018-09-21T16:56:03.857Z,18.00
2018-09-21T16:58:32.993Z,17.90
2018-09-21T17:01:04.658Z,17.80
2018-09-21T17:03:33.675Z,17.60
2018-09-21T17:06:02.538Z,17.60
2018-09-21T17:08:31.522Z,17.60
2018-09-21T17:11:00.404Z,17.50
2018-09-21T17:13:29.304Z,17.40
2018-09-21T17:15:58.313Z,17.20
2018-09-21T17:18:27.177Z,17.00
2018-09-21T17:20:56.121Z,17.00
2018-09-21T17:23:24.927Z,16.60
2018-09-21T17:25:54.092Z,16.70
2018-09-21T17:28:22.978Z,16.40
2018-09-21T17:30:51.788Z,16.20
2018-09-21T17:33:20.737Z,16.20
2018-09-21T17:35:50.021Z,15.80
2018-09-21T17:38:18.976Z,15.80
2018-09-21T17:40:47.884Z,15.80
2018-09-21T17:43:16.875Z,15.80
2018-09-21T17:45:46.111Z,15.90
2018-09-21T17:48:20.118Z,15.80
2018-09-21T17:50:53.104Z,15.90
2018-09-21T17:53:22.105Z,15.70
2018-09-21T17:55:51.085Z,15.50
2018-09-21T17:58:21.179Z,15.50
2018-09-21T18:00:50.014Z,15.60
2018-09-21T18:03:19.065Z,15.60
2018-09-21T18:05:48.524Z,15.60
2018-09-21T18:08:27.892Z,15.60
2018-09-21T18:14:05.576Z,15.60
2018-09-21T18:16:54.220Z,15.30
2018-09-21T18:19:30.650Z,15.30
2018-09-21T18:22:00.343Z,15.20
2018-09-21T18:24:31.155Z,15.10
2018-09-21T18:27:01.368Z,15.00
2018-09-21T18:29:30.329Z,15.10
2018-09-21T18:31:59.237Z,15.20
2018-09-21T18:34:28.225Z,15.20
2018-09-21T18:36:57.224Z,15.20
2018-09-21T18:39:26.981Z,15.10
2018-09-21T18:41:55.864Z,15.10
2018-09-21T18:44:25.168Z,15.00
2018-09-21T18:46:54.246Z,15.10
2018-09-21T18:49:23.160Z,15.00
2018-09-21T18:51:52.019Z,15.10
2018-09-21T18:54:22.204Z,15.10
2018-09-21T18:56:58.208Z,14.90
2018-09-21T19:00:59.692Z,14.90
2018-09-21T19:03:32.790Z,14.90
2018-09-21T19:06:01.676Z,14.80
2018-09-21T19:08:30.554Z,14.80
2018-09-21T19:10:59.352Z,14.80
2018-09-21T19:13:28.179Z,14.90
2018-09-21T19:15:57.713Z,14.80
2018-09-21T19:18:29.097Z,14.70
2018-09-21T19:21:08.991Z,14.80
2018-09-21T19:23:39.240Z,14.70
2018-09-21T19:26:10.934Z,14.90
2018-09-21T19:28:59.661Z,14.90
2018-09-21T19:31:33.077Z,14.70
2018-09-21T19:34:25.642Z,14.70
2018-09-21T19:37:47.311Z,14.70
2018-09-21T19:40:16.511Z,14.60
2018-09-21T19:42:50.370Z,14.60
2018-09-21T19:45:19.172Z,14.60
2018-09-21T19:47:47.882Z,14.40
2018-09-21T19:50:16.687Z,14.40
2018-09-21T19:52:45.498Z,14.30
2018-09-21T19:55:14.428Z,14.40
2018-09-21T19:57:43.260Z,14.40
2018-09-21T20:00:12.119Z,14.40
2018-09-21T20:02:40.955Z,14.40
2018-09-21T20:05:09.902Z,14.40
2018-09-21T20:07:38.724Z,14.50
2018-09-21T20:10:07.573Z,14.50
2018-09-21T20:12:36.513Z,14.50
2018-09-21T20:15:05.474Z,14.60
2018-09-21T20:17:34.336Z,14.60
2018-09-21T20:20:03.898Z,14.60
2018-09-21T20:22:32.775Z,14.50
2018-09-21T20:25:01.671Z,14.50
2018-09-21T20:27:32.623Z,14.50
2018-09-21T20:30:06.825Z,14.40
2018-09-21T20:32:41.041Z,14.30
2018-09-21T20:35:09.980Z,14.30
2018-09-21T20:37:39.232Z,14.20
2018-09-21T20:40:08.328Z,14.30
2018-09-21T20:42:37.120Z,14.30
2018-09-21T20:45:06.016Z,14.30
2018-09-21T20:47:34.828Z,14.30
2018-09-21T20:50:04.108Z,14.30
2018-09-21T20:52:33.094Z,14.20
2018-09-21T20:55:02.578Z,14.30
2018-09-21T20:57:31.539Z,14.40
2018-09-21T21:00:00.940Z,14.40
2018-09-21T21:02:29.829Z,14.40
2018-09-21T21:04:59.637Z,14.30
2018-09-21T21:07:28.505Z,14.20
2018-09-21T21:09:57.440Z,14.20
2018-09-21T21:12:26.343Z,14.30
2018-09-21T21:14:55.574Z,14.10
2018-09-21T21:17:24.488Z,14.20
2018-09-21T21:19:53.455Z,14.20
2018-09-21T21:22:22.722Z,14.20
2018-09-21T21:24:51.595Z,14.30
2018-09-21T21:27:20.536Z,14.30
2018-09-21T21:29:49.513Z,14.10
2018-09-21T21:32:18.375Z,14.10
2018-09-21T21:34:47.230Z,14.10
2018-09-21T21:37:16.110Z,14.10
2018-09-21T21:39:45.531Z,14.00
2018-09-21T21:42:14.713Z,14.00
2018-09-21T21:44:44.180Z,14.00
2018-09-21T21:47:13.012Z,14.00
2018-09-21T21:49:42.070Z,13.90
2018-09-21T21:52:11.136Z,14.00
2018-09-21T21:54:40.181Z,14.00
2018-09-21T21:57:09.186Z,14.00
2018-09-21T21:59:38.298Z,14.00
2018-09-21T22:02:10.364Z,14.00
2018-09-21T22:04:40.035Z,14.00
2018-09-21T22:07:09.988Z,14.00
2018-09-21T22:09:39.476Z,14.00
2018-09-21T22:12:14.005Z,14.00
2018-09-21T22:14:43.160Z,13.90
2018-09-21T22:17:12.284Z,13.90
2018-09-21T22:19:41.262Z,14.00
2018-09-21T22:22:10.222Z,14.00
2018-09-21T22:24:39.272Z,14.00
2018-09-21T22:27:08.226Z,14.00
2018-09-21T22:29:37.461Z,14.10
2018-09-21T22:32:06.428Z,14.00
2018-09-21T22:34:35.272Z,14.00
2018-09-21T22:37:04.123Z,14.10
2018-09-21T22:39:33.583Z,14.00
2018-09-21T22:42:03.190Z,14.00
2018-09-21T22:44:32.170Z,14.00
2018-09-21T22:47:01.243Z,14.00
2018-09-21T22:49:30.144Z,14.00
2018-09-21T22:51:59.119Z,14.10
2018-09-21T22:54:28.424Z,14.00
2018-09-21T22:56:57.371Z,14.00
2018-09-21T22:59:26.312Z,14.00
2018-09-21T23:01:55.276Z,14.00
2018-09-21T23:04:24.223Z,14.00
2018-09-21T23:06:53.105Z,14.10
2018-09-21T23:09:21.972Z,14.00
2018-09-21T23:11:51.202Z,14.00
2018-09-21T23:14:20.148Z,13.90
2018-09-21T23:16:49.093Z,14.00
2018-09-21T23:19:17.991Z,14.00
2018-09-21T23:21:47.002Z,14.00
2018-09-21T23:24:16.156Z,14.00
2018-09-21T23:26:45.194Z,13.80
2018-09-21T23:29:14.818Z,13.80
2018-09-21T23:31:43.777Z,13.80
2018-09-21T23:34:15.444Z,13.90
2018-09-21T23:36:44.577Z,13.90
2018-09-21T23:39:13.501Z,13.90
2018-09-21T23:41:42.656Z,13.90
2018-09-21T23:44:11.591Z,13.90
2018-09-21T23:46:40.553Z,13.80
2018-09-21T23:49:09.616Z,13.70
2018-09-21T23:51:38.851Z,13.80
2018-09-21T23:54:07.895Z,13.80
2018-09-21T23:56:36.828Z,13.80
2018-09-21T23:59:05.788Z,13.80
